sensor_id;sensor_type;location;lat;lon;timestamp;pressure;altitude;pressure_sealevel;temperature;humidity
57616;BME280;43816;52.054;-9.494;2023-04-05T00:00:06;101278.41;;;20.89;43.80
57616;BME280;43816;52.054;-9.494;2023-04-05T00:00:17;101273.28;;;20.86;43.79
57616;BME280;43816;52.054;-9.494;2023-04-05T00:00:28;101282.84;;;20.90;43.83
57616;BME280;43816;52.054;-9.494;2023-04-05T00:00:39;101281.81;;;20.91;44.00
57616;BME280;43816;52.054;-9.494;2023-04-05T00:00:49;101255.53;;;20.74;43.80
57616;BME280;43816;52.054;-9.494;2023-04-05T00:01:00;101254.47;;;20.75;43.94
57616;BME280;43816;52.054;-9.494;2023-04-05T00:01:10;101259.59;;;20.78;43.84
57616;BME280;43816;52.054;-9.494;2023-04-05T00:01:20;101283.19;;;20.87;43.77
57616;BME280;43816;52.054;-9.494;2023-04-05T00:01:31;101258.25;;;20.74;43.95
57616;BME280;43816;52.054;-9.494;2023-04-05T00:01:41;101265.56;;;20.81;43.58
57616;BME280;43816;52.054;-9.494;2023-04-05T00:01:52;101256.53;;;20.81;43.78
57616;BME280;43816;52.054;-9.494;2023-04-05T00:02:02;101283.03;;;20.88;43.84
57616;BME280;43816;52.054;-9.494;2023-04-05T00:02:12;101270.53;;;20.86;43.81
57616;BME280;43816;52.054;-9.494;2023-04-05T00:02:23;101267.63;;;20.87;43.80
57616;BME280;43816;52.054;-9.494;2023-04-05T00:02:33;101282.84;;;20.90;43.71
57616;BME280;43816;52.054;-9.494;2023-04-05T00:02:43;101274.66;;;20.90;43.99
57616;BME280;43816;52.054;-9.494;2023-04-05T00:02:57;101265.91;;;20.86;43.72
57616;BME280;43816;52.054;-9.494;2023-04-05T00:03:08;101255.69;;;20.80;43.96
57616;BME280;43816;52.054;-9.494;2023-04-05T00:03:18;101258.41;;;20.80;43.90
57616;BME280;43816;52.054;-9.494;2023-04-05T00:03:29;101272.75;;;20.91;43.74
57616;BME280;43816;52.054;-9.494;2023-04-05T00:03:42;101274.81;;;20.88;43.95
57616;BME280;43816;52.054;-9.494;2023-04-05T00:03:52;101265.25;;;20.84;43.93
57616;BME280;43816;52.054;-9.494;2023-04-05T00:04:03;101273.59;;;20.91;43.87
57616;BME280;43816;52.054;-9.494;2023-04-05T00:04:14;101278.91;;;20.93;43.67
57616;BME280;43816;52.054;-9.494;2023-04-05T00:04:25;101266.78;;;20.87;43.78
57616;BME280;43816;52.054;-9.494;2023-04-05T00:04:35;101272.59;;;20.92;43.76
57616;BME280;43816;52.054;-9.494;2023-04-05T00:04:46;101257.19;;;20.83;43.81
57616;BME280;43816;52.054;-9.494;2023-04-05T00:04:56;101267.63;;;20.87;43.85
57616;BME280;43816;52.054;-9.494;2023-04-05T00:05:07;101242.19;;;20.79;43.72
57616;BME280;43816;52.054;-9.494;2023-04-05T00:05:17;101245.94;;;20.78;43.79
57616;BME280;43816;52.054;-9.494;2023-04-05T00:05:27;101249.34;;;20.80;43.62
57616;BME280;43816;52.054;-9.494;2023-04-05T00:05:38;101238.63;;;20.70;43.69
57616;BME280;43816;52.054;-9.494;2023-04-05T00:05:48;101256.19;;;20.84;43.81
57616;BME280;43816;52.054;-9.494;2023-04-05T00:05:59;101257.88;;;20.85;43.63
57616;BME280;43816;52.054;-9.494;2023-04-05T00:06:09;101261.16;;;20.88;44.00
57616;BME280;43816;52.054;-9.494;2023-04-05T00:06:20;101234.50;;;20.74;43.88
57616;BME280;43816;52.054;-9.494;2023-04-05T00:06:31;101243.38;;;20.76;43.89
57616;BME280;43816;52.054;-9.494;2023-04-05T00:06:41;101239.97;;;20.74;43.87
57616;BME280;43816;52.054;-9.494;2023-04-05T00:06:51;101264.06;;;20.87;43.88
57616;BME280;43816;52.054;-9.494;2023-04-05T00:07:01;101217.94;;;20.67;43.84
57616;BME280;43816;52.054;-9.494;2023-04-05T00:07:12;101255.84;;;20.87;43.98
57616;BME280;43816;52.054;-9.494;2023-04-05T00:07:22;101239.44;;;20.79;43.97
57616;BME280;43816;52.054;-9.494;2023-04-05T00:07:33;101266.44;;;20.90;43.86
57616;BME280;43816;52.054;-9.494;2023-04-05T00:07:43;101258.59;;;20.87;44.03
57616;BME280;43816;52.054;-9.494;2023-04-05T00:07:56;101257.53;;;20.88;43.73
57616;BME280;43816;52.054;-9.494;2023-04-05T00:08:07;101264.72;;;20.89;43.92
57616;BME280;43816;52.054;-9.494;2023-04-05T00:08:17;101264.72;;;20.89;43.75
57616;BME280;43816;52.054;-9.494;2023-04-05T00:08:27;101262.16;;;20.87;43.89
57616;BME280;43816;52.054;-9.494;2023-04-05T00:08:38;101261.31;;;20.87;43.93
57616;BME280;43816;52.054;-9.494;2023-04-05T00:08:48;101244.91;;;20.79;43.63
57616;BME280;43816;52.054;-9.494;2023-04-05T00:09:00;101260.81;;;20.83;43.93
57616;BME280;43816;52.054;-9.494;2023-04-05T00:09:10;101265.06;;;20.86;43.86
57616;BME280;43816;52.054;-9.494;2023-04-05T00:09:21;101256.88;;;20.86;43.95
57616;BME280;43816;52.054;-9.494;2023-04-05T00:09:31;101262.16;;;20.87;43.47
57616;BME280;43816;52.054;-9.494;2023-04-05T00:09:42;101250.38;;;20.79;43.96
57616;BME280;43816;52.054;-9.494;2023-04-05T00:09:52;101258.25;;;20.82;43.90
57616;BME280;43816;52.054;-9.494;2023-04-05T00:10:03;101265.75;;;20.88;44.17
57616;BME280;43816;52.054;-9.494;2023-04-05T00:10:13;101266.78;;;20.87;43.88
57616;BME280;43816;52.054;-9.494;2023-04-05T00:10:23;101263.00;;;20.88;43.92
57616;BME280;43816;52.054;-9.494;2023-04-05T00:10:34;101265.75;;;20.88;43.92
57616;BME280;43816;52.054;-9.494;2023-04-05T00:10:45;101278.06;;;20.92;43.84
57616;BME280;43816;52.054;-9.494;2023-04-05T00:10:55;101271.91;;;20.90;44.00
57616;BME280;43816;52.054;-9.494;2023-04-05T00:11:06;101265.06;;;20.86;44.12
57616;BME280;43816;52.054;-9.494;2023-04-05T00:11:16;101271.91;;;20.90;43.97
57616;BME280;43816;52.054;-9.494;2023-04-05T00:11:28;101267.63;;;20.87;43.90
57616;BME280;43816;52.054;-9.494;2023-04-05T00:11:38;101275.66;;;20.89;44.00
57616;BME280;43816;52.054;-9.494;2023-04-05T00:11:49;101262.66;;;20.91;43.88
57616;BME280;43816;52.054;-9.494;2023-04-05T00:11:59;101261.31;;;20.87;43.83
57616;BME280;43816;52.054;-9.494;2023-04-05T00:12:09;101267.47;;;20.89;43.89
57616;BME280;43816;52.054;-9.494;2023-04-05T00:12:20;101270.19;;;20.89;43.94
57616;BME280;43816;52.054;-9.494;2023-04-05T00:12:30;101259.94;;;20.83;43.92
57616;BME280;43816;52.054;-9.494;2023-04-05T00:12:40;101260.44;;;20.86;43.87
57616;BME280;43816;52.054;-9.494;2023-04-05T00:12:51;101267.47;;;20.89;44.05
57616;BME280;43816;52.054;-9.494;2023-04-05T00:13:01;101266.78;;;20.87;44.00
57616;BME280;43816;52.054;-9.494;2023-04-05T00:13:12;101264.06;;;20.87;43.89
57616;BME280;43816;52.054;-9.494;2023-04-05T00:13:32;101260.44;;;20.86;43.89
57616;BME280;43816;52.054;-9.494;2023-04-05T00:13:42;101267.97;;;20.93;44.09
57616;BME280;43816;52.054;-9.494;2023-04-05T00:13:53;101272.75;;;20.91;43.83
57616;BME280;43816;52.054;-9.494;2023-04-05T00:14:03;101267.28;;;20.91;44.00
57616;BME280;43816;52.054;-9.494;2023-04-05T00:14:13;101249.16;;;20.81;43.98
57616;BME280;43816;52.054;-9.494;2023-04-05T00:14:24;101249.72;;;20.77;43.87
57616;BME280;43816;52.054;-9.494;2023-04-05T00:14:34;101249.72;;;20.77;43.82
57616;BME280;43816;52.054;-9.494;2023-04-05T00:14:44;101262.34;;;20.86;43.70
57616;BME280;43816;52.054;-9.494;2023-04-05T00:14:55;101261.31;;;20.87;44.02
57616;BME280;43816;52.054;-9.494;2023-04-05T00:15:05;101266.44;;;20.90;43.86
57616;BME280;43816;52.054;-9.494;2023-04-05T00:15:16;101267.97;;;20.93;43.96
57616;BME280;43816;52.054;-9.494;2023-04-05T00:15:26;101257.53;;;20.88;44.01
57616;BME280;43816;52.054;-9.494;2023-04-05T00:15:37;101257.19;;;20.83;43.89
57616;BME280;43816;52.054;-9.494;2023-04-05T00:15:48;101239.13;;;20.74;43.91
57616;BME280;43816;52.054;-9.494;2023-04-05T00:15:58;101240.13;;;20.73;43.95
57616;BME280;43816;52.054;-9.494;2023-04-05T00:16:12;101250.72;;;20.84;43.75
57616;BME280;43816;52.054;-9.494;2023-04-05T00:16:22;101267.63;;;20.87;43.96
57616;BME280;43816;52.054;-9.494;2023-04-05T00:16:32;101264.06;;;20.87;43.98
57616;BME280;43816;52.054;-9.494;2023-04-05T00:16:42;101269.84;;;20.92;43.94
57616;BME280;43816;52.054;-9.494;2023-04-05T00:16:53;101263.72;;;20.82;43.88
57616;BME280;43816;52.054;-9.494;2023-04-05T00:17:03;101257.19;;;20.83;43.80
57616;BME280;43816;52.054;-9.494;2023-04-05T00:17:13;101257.38;;;20.81;43.73
57616;BME280;43816;52.054;-9.494;2023-04-05T00:17:24;101266.63;;;20.88;43.81
57616;BME280;43816;52.054;-9.494;2023-04-05T00:17:34;101270.88;;;20.91;43.97
57616;BME280;43816;52.054;-9.494;2023-04-05T00:17:44;101266.44;;;20.90;43.74
57616;BME280;43816;52.054;-9.494;2023-04-05T00:17:55;101270.88;;;20.91;43.84
57616;BME280;43816;52.054;-9.494;2023-04-05T00:18:05;101256.19;;;20.84;44.00
57616;BME280;43816;52.054;-9.494;2023-04-05T00:18:16;101264.72;;;20.89;44.01
57616;BME280;43816;52.054;-9.494;2023-04-05T00:18:26;101259.59;;;20.86;44.05
57616;BME280;43816;52.054;-9.494;2023-04-05T00:18:36;101269.84;;;20.92;44.00
57616;BME280;43816;52.054;-9.494;2023-04-05T00:18:47;101262.34;;;20.86;43.94
57616;BME280;43816;52.054;-9.494;2023-04-05T00:18:58;101259.94;;;20.83;43.67
57616;BME280;43816;52.054;-9.494;2023-04-05T00:19:08;101249.34;;;20.80;44.01
57616;BME280;43816;52.054;-9.494;2023-04-05T00:19:18;101275.31;;;20.92;43.96
57616;BME280;43816;52.054;-9.494;2023-04-05T00:19:28;101273.44;;;20.93;43.90
57616;BME280;43816;52.054;-9.494;2023-04-05T00:19:39;101271.03;;;20.89;43.97
57616;BME280;43816;52.054;-9.494;2023-04-05T00:19:52;101251.56;;;20.84;44.03
57616;BME280;43816;52.054;-9.494;2023-04-05T00:20:03;101270.38;;;20.87;43.79
57616;BME280;43816;52.054;-9.494;2023-04-05T00:20:13;101268.13;;;20.91;44.02
57616;BME280;43816;52.054;-9.494;2023-04-05T00:20:23;101263.00;;;20.88;44.11
57616;BME280;43816;52.054;-9.494;2023-04-05T00:20:34;101262.84;;;20.81;43.85
57616;BME280;43816;52.054;-9.494;2023-04-05T00:20:44;101257.88;;;20.85;44.01
57616;BME280;43816;52.054;-9.494;2023-04-05T00:20:54;101262.34;;;20.86;43.84
57616;BME280;43816;52.054;-9.494;2023-04-05T00:21:04;101237.41;;;20.73;43.95
57616;BME280;43816;52.054;-9.494;2023-04-05T00:21:18;101269.19;;;20.90;43.89
57616;BME280;43816;52.054;-9.494;2023-04-05T00:21:29;101266.44;;;20.90;43.80
57616;BME280;43816;52.054;-9.494;2023-04-05T00:21:39;101268.13;;;20.91;44.01
57616;BME280;43816;52.054;-9.494;2023-04-05T00:21:49;101256.19;;;20.84;44.13
57616;BME280;43816;52.054;-9.494;2023-04-05T00:22:00;101246.97;;;20.77;43.99
57616;BME280;43816;52.054;-9.494;2023-04-05T00:22:10;101271.53;;;20.93;44.01
57616;BME280;43816;52.054;-9.494;2023-04-05T00:22:20;101259.78;;;20.84;44.05
57616;BME280;43816;52.054;-9.494;2023-04-05T00:22:31;101268.47;;;20.88;43.95
57616;BME280;43816;52.054;-9.494;2023-04-05T00:22:41;101249.50;;;20.78;43.96
57616;BME280;43816;52.054;-9.494;2023-04-05T00:22:51;101263.34;;;20.85;43.95
57616;BME280;43816;52.054;-9.494;2023-04-05T00:23:02;101268.47;;;20.88;44.05
57616;BME280;43816;52.054;-9.494;2023-04-05T00:23:12;101253.63;;;20.82;43.97
57616;BME280;43816;52.054;-9.494;2023-04-05T00:23:22;101267.28;;;20.91;43.72
57616;BME280;43816;52.054;-9.494;2023-04-05T00:23:32;101277.88;;;20.94;43.75
57616;BME280;43816;52.054;-9.494;2023-04-05T00:23:43;101258.75;;;20.85;43.90
57616;BME280;43816;52.054;-9.494;2023-04-05T00:23:55;101259.94;;;20.83;43.71
57616;BME280;43816;52.054;-9.494;2023-04-05T00:24:06;101277.88;;;20.94;43.93
57616;BME280;43816;52.054;-9.494;2023-04-05T00:24:16;101271.22;;;20.88;43.97
57616;BME280;43816;52.054;-9.494;2023-04-05T00:24:27;101256.53;;;20.81;43.94
57616;BME280;43816;52.054;-9.494;2023-04-05T00:24:37;101262.34;;;20.86;43.81
57616;BME280;43816;52.054;-9.494;2023-04-05T00:24:48;101260.81;;;20.83;43.69
57616;BME280;43816;52.054;-9.494;2023-04-05T00:24:58;101268.13;;;20.91;43.80
57616;BME280;43816;52.054;-9.494;2023-04-05T00:25:09;101261.66;;;20.84;43.85
57616;BME280;43816;52.054;-9.494;2023-04-05T00:25:19;101275.66;;;20.89;43.84
57616;BME280;43816;52.054;-9.494;2023-04-05T00:25:29;101252.06;;;20.80;43.91
57616;BME280;43816;52.054;-9.494;2023-04-05T00:25:40;101266.78;;;20.87;44.03
57616;BME280;43816;52.054;-9.494;2023-04-05T00:25:50;101277.38;;;20.90;43.62
57616;BME280;43816;52.054;-9.494;2023-04-05T00:26:00;101265.41;;;20.91;43.89
57616;BME280;43816;52.054;-9.494;2023-04-05T00:26:10;101252.94;;;20.80;43.88
57616;BME280;43816;52.054;-9.494;2023-04-05T00:26:21;101269.19;;;20.90;43.78
57616;BME280;43816;52.054;-9.494;2023-04-05T00:26:31;101268.13;;;20.91;43.76
57616;BME280;43816;52.054;-9.494;2023-04-05T00:26:42;101246.78;;;20.78;43.69
57616;BME280;43816;52.054;-9.494;2023-04-05T00:26:52;101257.03;;;20.84;43.93
57616;BME280;43816;52.054;-9.494;2023-04-05T00:27:02;101278.91;;;20.93;43.59
57616;BME280;43816;52.054;-9.494;2023-04-05T00:27:13;101254.28;;;20.84;43.60
57616;BME280;43816;52.054;-9.494;2023-04-05T00:27:23;101261.66;;;20.84;44.12
57616;BME280;43816;52.054;-9.494;2023-04-05T00:27:33;101263.88;;;20.88;43.90
57616;BME280;43816;52.054;-9.494;2023-04-05T00:27:44;101274.28;;;20.93;43.77
57616;BME280;43816;52.054;-9.494;2023-04-05T00:27:54;101258.25;;;20.82;43.62
57616;BME280;43816;52.054;-9.494;2023-04-05T00:28:04;101265.75;;;20.88;43.85
57616;BME280;43816;52.054;-9.494;2023-04-05T00:28:15;101264.72;;;20.89;44.02
57616;BME280;43816;52.054;-9.494;2023-04-05T00:28:25;101264.22;;;20.85;43.86
57616;BME280;43816;52.054;-9.494;2023-04-05T00:28:35;101228.03;;;20.67;43.94
57616;BME280;43816;52.054;-9.494;2023-04-05T00:28:46;101269.19;;;20.90;43.64
57616;BME280;43816;52.054;-9.494;2023-04-05T00:28:57;101249.00;;;20.83;43.90
57616;BME280;43816;52.054;-9.494;2023-04-05T00:29:07;101257.38;;;20.81;43.89
57616;BME280;43816;52.054;-9.494;2023-04-05T00:29:17;101268.66;;;20.86;43.87
57616;BME280;43816;52.054;-9.494;2023-04-05T00:29:28;101234.84;;;20.71;43.56
57616;BME280;43816;52.054;-9.494;2023-04-05T00:29:38;101270.03;;;20.91;43.80
57616;BME280;43816;52.054;-9.494;2023-04-05T00:29:48;101269.84;;;20.92;43.90
57616;BME280;43816;52.054;-9.494;2023-04-05T00:29:59;101264.72;;;20.89;43.72
57616;BME280;43816;52.054;-9.494;2023-04-05T00:30:09;101280.63;;;20.94;43.93
57616;BME280;43816;52.054;-9.494;2023-04-05T00:30:19;101261.66;;;20.84;43.87
57616;BME280;43816;52.054;-9.494;2023-04-05T00:30:30;101265.06;;;20.86;43.57
57616;BME280;43816;52.054;-9.494;2023-04-05T00:30:40;101265.75;;;20.88;43.77
57616;BME280;43816;52.054;-9.494;2023-04-05T00:30:51;101216.56;;;20.55;44.00
57616;BME280;43816;52.054;-9.494;2023-04-05T00:31:03;101271.22;;;20.88;43.81
57616;BME280;43816;52.054;-9.494;2023-04-05T00:31:13;101266.25;;;20.92;43.58
57616;BME280;43816;52.054;-9.494;2023-04-05T00:31:24;101271.03;;;20.89;43.51
57616;BME280;43816;52.054;-9.494;2023-04-05T00:31:34;101267.81;;;20.86;43.74
57616;BME280;43816;52.054;-9.494;2023-04-05T00:31:44;101257.19;;;20.83;43.67
57616;BME280;43816;52.054;-9.494;2023-04-05T00:31:55;101262.50;;;20.84;43.65
57616;BME280;43816;52.054;-9.494;2023-04-05T00:32:05;101270.53;;;20.86;43.74
57616;BME280;43816;52.054;-9.494;2023-04-05T00:32:15;101264.41;;;20.84;43.54
57616;BME280;43816;52.054;-9.494;2023-04-05T00:32:26;101270.88;;;20.91;43.28
57616;BME280;43816;52.054;-9.494;2023-04-05T00:32:36;101263.34;;;20.85;43.31
57616;BME280;43816;52.054;-9.494;2023-04-05T00:32:47;101252.94;;;20.80;43.61
57616;BME280;43816;52.054;-9.494;2023-04-05T00:32:57;101251.06;;;20.81;43.78
57616;BME280;43816;52.054;-9.494;2023-04-05T00:33:08;101258.25;;;20.82;43.83
57616;BME280;43816;52.054;-9.494;2023-04-05T00:33:18;101266.44;;;20.90;43.84
57616;BME280;43816;52.054;-9.494;2023-04-05T00:33:28;101261.31;;;20.87;43.64
57616;BME280;43816;52.054;-9.494;2023-04-05T00:33:39;101270.69;;;20.93;43.89
57616;BME280;43816;52.054;-9.494;2023-04-05T00:33:49;101264.06;;;20.87;43.65
57616;BME280;43816;52.054;-9.494;2023-04-05T00:34:02;101265.06;;;20.86;43.55
57616;BME280;43816;52.054;-9.494;2023-04-05T00:34:13;101272.59;;;20.92;43.40
57616;BME280;43816;52.054;-9.494;2023-04-05T00:34:23;101275.31;;;20.92;43.57
57616;BME280;43816;52.054;-9.494;2023-04-05T00:34:33;101272.75;;;20.91;43.63
57616;BME280;43816;52.054;-9.494;2023-04-05T00:34:44;101278.91;;;20.93;43.38
57616;BME280;43816;52.054;-9.494;2023-04-05T00:34:54;101262.69;;;20.83;43.51
57616;BME280;43816;52.054;-9.494;2023-04-05T00:35:04;101270.88;;;20.91;43.39
57616;BME280;43816;52.054;-9.494;2023-04-05T00:35:15;101283.19;;;20.95;43.80
57616;BME280;43816;52.054;-9.494;2023-04-05T00:35:29;101265.06;;;20.86;43.31
57616;BME280;43816;52.054;-9.494;2023-04-05T00:35:39;101271.53;;;20.93;43.45
57616;BME280;43816;52.054;-9.494;2023-04-05T00:35:50;101258.41;;;20.88;43.59
57616;BME280;43816;52.054;-9.494;2023-04-05T00:36:17;101273.09;;;20.96;43.64
57616;BME280;43816;52.054;-9.494;2023-04-05T00:36:27;101259.94;;;20.83;43.46
57616;BME280;43816;52.054;-9.494;2023-04-05T00:36:38;101277.00;;;20.93;43.60
57616;BME280;43816;52.054;-9.494;2023-04-05T00:36:48;101281.47;;;20.94;43.35
57616;BME280;43816;52.054;-9.494;2023-04-05T00:36:58;101261.00;;;20.82;43.49
57616;BME280;43816;52.054;-9.494;2023-04-05T00:37:10;101262.00;;;20.81;43.20
57616;BME280;43816;52.054;-9.494;2023-04-05T00:37:20;101253.13;;;20.79;43.67
57616;BME280;43816;52.054;-9.494;2023-04-05T00:37:31;101286.75;;;20.96;43.47
57616;BME280;43816;52.054;-9.494;2023-04-05T00:37:41;101279.06;;;20.91;43.59
57616;BME280;43816;52.054;-9.494;2023-04-05T00:37:51;101267.13;;;20.84;43.64
57616;BME280;43816;52.054;-9.494;2023-04-05T00:38:02;101285.03;;;20.95;43.24
57616;BME280;43816;52.054;-9.494;2023-04-05T00:38:12;101268.81;;;20.85;43.55
57616;BME280;43816;52.054;-9.494;2023-04-05T00:38:22;101265.06;;;20.86;43.34
57616;BME280;43816;52.054;-9.494;2023-04-05T00:38:33;101264.06;;;20.87;43.63
57616;BME280;43816;52.054;-9.494;2023-04-05T00:38:44;101260.28;;;20.80;43.66
57616;BME280;43816;52.054;-9.494;2023-04-05T00:38:55;101262.50;;;20.84;43.57
57616;BME280;43816;52.054;-9.494;2023-04-05T00:39:05;101255.50;;;20.82;43.40
57616;BME280;43816;52.054;-9.494;2023-04-05T00:39:16;101279.75;;;20.93;43.73
57616;BME280;43816;52.054;-9.494;2023-04-05T00:39:26;101267.81;;;20.86;43.57
57616;BME280;43816;52.054;-9.494;2023-04-05T00:39:37;101262.50;;;20.84;43.47
57616;BME280;43816;52.054;-9.494;2023-04-05T00:39:48;101262.50;;;20.84;43.40
57616;BME280;43816;52.054;-9.494;2023-04-05T00:39:58;101270.53;;;20.86;43.41
57616;BME280;43816;52.054;-9.494;2023-04-05T00:40:09;101277.72;;;20.87;43.72
57616;BME280;43816;52.054;-9.494;2023-04-05T00:40:19;101275.31;;;20.92;43.46
57616;BME280;43816;52.054;-9.494;2023-04-05T00:40:29;101254.81;;;20.80;43.38
57616;BME280;43816;52.054;-9.494;2023-04-05T00:40:39;101267.13;;;20.84;43.56
57616;BME280;43816;52.054;-9.494;2023-04-05T00:40:50;101259.44;;;20.87;43.64
57616;BME280;43816;52.054;-9.494;2023-04-05T00:41:00;101256.19;;;20.84;43.57
57616;BME280;43816;52.054;-9.494;2023-04-05T00:41:11;101277.38;;;20.90;43.60
57616;BME280;43816;52.054;-9.494;2023-04-05T00:41:21;101270.19;;;20.89;43.31
57616;BME280;43816;52.054;-9.494;2023-04-05T00:41:31;101272.09;;;20.88;43.55
57616;BME280;43816;52.054;-9.494;2023-04-05T00:41:42;101269.34;;;20.88;43.54
57616;BME280;43816;52.054;-9.494;2023-04-05T00:41:52;101265.06;;;20.86;43.37
57616;BME280;43816;52.054;-9.494;2023-04-05T00:42:02;101272.59;;;20.92;43.75
57616;BME280;43816;52.054;-9.494;2023-04-05T00:42:13;101273.44;;;20.93;43.67
57616;BME280;43816;52.054;-9.494;2023-04-05T00:42:24;101257.88;;;20.85;43.51
57616;BME280;43816;52.054;-9.494;2023-04-05T00:42:34;101269.84;;;20.92;43.48
57616;BME280;43816;52.054;-9.494;2023-04-05T00:42:44;101273.25;;;20.94;43.49
57616;BME280;43816;52.054;-9.494;2023-04-05T00:42:55;101270.69;;;20.93;43.42
57616;BME280;43816;52.054;-9.494;2023-04-05T00:43:05;101267.13;;;20.92;43.34
57616;BME280;43816;52.054;-9.494;2023-04-05T00:43:15;101272.41;;;20.94;43.70
57616;BME280;43816;52.054;-9.494;2023-04-05T00:43:25;101258.75;;;20.85;43.78
57616;BME280;43816;52.054;-9.494;2023-04-05T00:43:36;101260.44;;;20.86;43.70
57616;BME280;43816;52.054;-9.494;2023-04-05T00:43:46;101260.28;;;20.88;43.45
57616;BME280;43816;52.054;-9.494;2023-04-05T00:43:57;101269.53;;;20.87;43.38
57616;BME280;43816;52.054;-9.494;2023-04-05T00:44:07;101268.47;;;20.88;43.37
57616;BME280;43816;52.054;-9.494;2023-04-05T00:44:27;101263.88;;;20.88;43.38
57616;BME280;43816;52.054;-9.494;2023-04-05T00:44:38;101264.72;;;20.89;43.47
57616;BME280;43816;52.054;-9.494;2023-04-05T00:44:48;101275.31;;;20.92;43.58
57616;BME280;43816;52.054;-9.494;2023-04-05T00:44:58;101250.06;;;20.82;43.51
57616;BME280;43816;52.054;-9.494;2023-04-05T00:45:09;101269.34;;;20.88;43.43
57616;BME280;43816;52.054;-9.494;2023-04-05T00:45:19;101268.47;;;20.88;43.45
57616;BME280;43816;52.054;-9.494;2023-04-05T00:45:29;101248.50;;;20.79;43.52
57616;BME280;43816;52.054;-9.494;2023-04-05T00:45:40;101259.59;;;20.86;43.48
57616;BME280;43816;52.054;-9.494;2023-04-05T00:45:51;101246.97;;;20.77;43.17
57616;BME280;43816;52.054;-9.494;2023-04-05T00:46:03;101227.84;;;20.68;43.50
57616;BME280;43816;52.054;-9.494;2023-04-05T00:46:13;101248.16;;;20.82;43.36
57616;BME280;43816;52.054;-9.494;2023-04-05T00:46:25;101229.53;;;20.69;43.65
57616;BME280;43816;52.054;-9.494;2023-04-05T00:46:35;101257.19;;;20.83;43.56
57616;BME280;43816;52.054;-9.494;2023-04-05T00:46:46;101253.28;;;20.85;43.48
57616;BME280;43816;52.054;-9.494;2023-04-05T00:46:56;101216.91;;;20.60;43.41
57616;BME280;43816;52.054;-9.494;2023-04-05T00:47:06;101273.25;;;20.94;43.38
57616;BME280;43816;52.054;-9.494;2023-04-05T00:47:17;101253.63;;;20.82;43.36
57616;BME280;43816;52.054;-9.494;2023-04-05T00:47:27;101263.72;;;20.90;43.46
57616;BME280;43816;52.054;-9.494;2023-04-05T00:47:38;101252.41;;;20.85;43.31
57616;BME280;43816;52.054;-9.494;2023-04-05T00:47:48;101261.66;;;20.92;43.19
57616;BME280;43816;52.054;-9.494;2023-04-05T00:47:59;101250.53;;;20.85;43.33
57616;BME280;43816;52.054;-9.494;2023-04-05T00:48:10;101227.31;;;20.73;43.27
57616;BME280;43816;52.054;-9.494;2023-04-05T00:48:21;101251.56;;;20.84;43.47
57616;BME280;43816;52.054;-9.494;2023-04-05T00:48:33;101250.38;;;20.87;43.28
57616;BME280;43816;52.054;-9.494;2023-04-05T00:48:43;101250.53;;;20.85;43.37
57616;BME280;43816;52.054;-9.494;2023-04-05T00:48:54;101236.72;;;20.79;43.50
57616;BME280;43816;52.054;-9.494;2023-04-05T00:49:05;101270.53;;;20.94;43.34
57616;BME280;43816;52.054;-9.494;2023-04-05T00:49:15;101254.13;;;20.86;43.18
57616;BME280;43816;52.054;-9.494;2023-04-05T00:49:28;101260.97;;;20.90;43.50
57616;BME280;43816;52.054;-9.494;2023-04-05T00:49:38;101256.53;;;20.89;43.46
57616;BME280;43816;52.054;-9.494;2023-04-05T00:49:49;101243.53;;;20.83;43.50
57616;BME280;43816;52.054;-9.494;2023-04-05T00:50:00;101264.38;;;20.92;43.41
57616;BME280;43816;52.054;-9.494;2023-04-05T00:50:11;101250.38;;;20.87;43.50
57616;BME280;43816;52.054;-9.494;2023-04-05T00:50:21;101245.25;;;20.84;43.55
57616;BME280;43816;52.054;-9.494;2023-04-05T00:50:32;101269.50;;;20.95;43.41
57616;BME280;43816;52.054;-9.494;2023-04-05T00:50:42;101253.63;;;20.91;43.29
57616;BME280;43816;52.054;-9.494;2023-04-05T00:50:53;101258.03;;;20.92;43.29
57616;BME280;43816;52.054;-9.494;2023-04-05T00:51:03;101255.50;;;20.90;43.52
57616;BME280;43816;52.054;-9.494;2023-04-05T00:51:14;101259.25;;;20.89;43.21
57616;BME280;43816;52.054;-9.494;2023-04-05T00:51:24;101274.28;;;20.93;43.48
57616;BME280;43816;52.054;-9.494;2023-04-05T00:51:35;101256.53;;;20.89;43.68
57616;BME280;43816;52.054;-9.494;2023-04-05T00:51:46;101259.94;;;20.91;43.50
57616;BME280;43816;52.054;-9.494;2023-04-05T00:51:57;101247.31;;;20.82;43.59
57616;BME280;43816;52.054;-9.494;2023-04-05T00:52:08;101267.13;;;20.92;43.50
57616;BME280;43816;52.054;-9.494;2023-04-05T00:52:18;101249.50;;;20.86;43.45
57616;BME280;43816;52.054;-9.494;2023-04-05T00:52:28;101250.88;;;20.91;43.53
57616;BME280;43816;52.054;-9.494;2023-04-05T00:52:39;101253.13;;;20.87;43.46
57616;BME280;43816;52.054;-9.494;2023-04-05T00:52:49;101258.91;;;20.92;43.51
57616;BME280;43816;52.054;-9.494;2023-04-05T00:53:00;101248.66;;;20.86;43.72
57616;BME280;43816;52.054;-9.494;2023-04-05T00:53:11;101242.34;;;20.85;43.53
57616;BME280;43816;52.054;-9.494;2023-04-05T00:53:22;101267.78;;;20.94;43.17
57616;BME280;43816;52.054;-9.494;2023-04-05T00:53:32;101259.75;;;20.93;43.28
57616;BME280;43816;52.054;-9.494;2023-04-05T00:53:43;101264.38;;;20.92;43.27
57616;BME280;43816;52.054;-9.494;2023-04-05T00:53:53;101255.84;;;20.87;43.33
57616;BME280;43816;52.054;-9.494;2023-04-05T00:54:04;101263.16;;;20.95;43.28
57616;BME280;43816;52.054;-9.494;2023-04-05T00:54:15;101247.81;;;20.85;43.18
57616;BME280;43816;52.054;-9.494;2023-04-05T00:54:26;101262.84;;;20.89;43.20
57616;BME280;43816;52.054;-9.494;2023-04-05T00:54:37;101253.47;;;20.84;43.41
57616;BME280;43816;52.054;-9.494;2023-04-05T00:54:48;101252.41;;;20.85;43.47
57616;BME280;43816;52.054;-9.494;2023-04-05T00:54:59;101266.06;;;20.93;43.41
57616;BME280;43816;52.054;-9.494;2023-04-05T00:55:10;101248.81;;;20.84;43.34